createdAt,value
2023-01-11T00:01:16.959Z,253.50
2023-01-11T00:04:37.915Z,247.31
2023-01-11T00:07:59.165Z,255.95
2023-01-11T00:11:22.695Z,250.00
2023-01-11T00:14:46.459Z,259.61
2023-01-11T00:18:07.599Z,280.13
2023-01-11T00:21:29.594Z,269.36
2023-01-11T00:24:50.437Z,275.39
2023-01-11T00:28:14.296Z,277.58
2023-01-11T00:31:35.245Z,266.83
2023-01-11T00:34:56.149Z,254.01
2023-01-11T00:38:37.072Z,266.06
2023-01-11T00:42:10.285Z,316.31
2023-01-11T00:45:55.423Z,301.49
2023-01-11T00:49:16.206Z,270.71
2023-01-11T00:52:37.097Z,263.64
2023-01-11T00:55:57.945Z,247.89
2023-01-11T00:59:19.080Z,256.92
2023-01-11T01:02:42.817Z,259.15
2023-01-11T01:06:03.800Z,227.77
2023-01-11T01:09:24.744Z,229.52
2023-01-11T01:12:57.986Z,230.11
2023-01-11T01:16:19.800Z,223.24
2023-01-11T01:19:43.329Z,225.98
2023-01-11T01:23:04.127Z,233.59
2023-01-11T01:26:26.200Z,221.47
2023-01-11T01:29:47.602Z,234.39
2023-01-11T01:33:08.472Z,720.62
2023-01-11T01:36:31.943Z,899.23
2023-01-11T01:39:58.969Z,452.16
2023-01-11T01:43:21.395Z,323.63
2023-01-11T01:46:44.895Z,270.18
2023-01-11T01:50:13.397Z,243.28
2023-01-11T01:53:41.490Z,231.72
2023-01-11T01:57:09.125Z,209.38
2023-01-11T02:00:30.235Z,184.97
2023-01-11T02:03:58.024Z,190.10
2023-01-11T02:07:24.680Z,192.06
2023-01-11T02:10:48.041Z,194.75
2023-01-11T02:14:19.739Z,194.77
2023-01-11T02:17:28.299Z,191.00
2023-01-11T02:21:12.155Z,208.61
2023-01-11T02:24:59.359Z,212.01
2023-01-11T02:28:18.008Z,211.16
2023-01-11T02:31:37.014Z,226.42
2023-01-11T02:34:53.922Z,203.63
2023-01-11T02:38:13.834Z,199.41
2023-01-11T02:41:52.128Z,199.08
2023-01-11T02:45:18.347Z,194.50
2023-01-11T02:48:35.822Z,190.03
2023-01-11T02:51:53.941Z,183.76
2023-01-11T02:55:05.474Z,181.63
2023-01-11T02:58:16.810Z,196.57
2023-01-11T03:01:25.882Z,190.27
2023-01-11T03:04:36.156Z,188.53
2023-01-11T03:08:03.042Z,192.03
2023-01-11T03:11:37.368Z,193.16
2023-01-11T03:15:03.123Z,192.99
2023-01-11T03:18:40.895Z,196.96
2023-01-11T03:22:02.898Z,243.95
2023-01-11T03:25:26.569Z,269.04
2023-01-11T03:28:43.717Z,315.96
2023-01-11T03:32:00.451Z,329.55
2023-01-11T03:35:26.991Z,301.83
2023-01-11T03:38:44.411Z,344.31
2023-01-11T03:41:57.447Z,318.56
2023-01-11T03:45:07.840Z,324.80
2023-01-11T03:48:21.618Z,326.50
2023-01-11T03:51:41.946Z,348.97
2023-01-11T03:54:48.616Z,351.01
2023-01-11T03:57:58.691Z,335.50
2023-01-11T04:01:06.831Z,352.62
2023-01-11T04:04:13.898Z,317.08
2023-01-11T04:07:22.866Z,324.62
2023-01-11T04:10:29.901Z,358.86
2023-01-11T04:13:36.042Z,365.52
2023-01-11T04:16:43.146Z,371.39
2023-01-11T04:19:49.349Z,363.13
2023-01-11T04:22:59.002Z,375.55
2023-01-11T04:26:05.295Z,396.69
2023-01-11T04:29:13.756Z,386.67
2023-01-11T04:32:19.958Z,373.25
2023-01-11T04:35:26.944Z,370.43
2023-01-11T04:38:36.615Z,353.09
2023-01-11T04:41:55.898Z,414.33
2023-01-11T04:45:01.928Z,495.51
2023-01-11T04:48:09.610Z,488.34
2023-01-11T04:51:15.593Z,443.83
2023-01-11T04:54:25.139Z,462.22
2023-01-11T04:57:31.184Z,468.98
2023-01-11T05:00:38.132Z,481.37
2023-01-11T05:03:44.298Z,538.30
2023-01-11T05:06:51.473Z,537.57
2023-01-11T05:10:00.303Z,549.34
2023-01-11T05:13:07.261Z,563.70
2023-01-11T05:16:16.400Z,508.39
2023-01-11T05:19:23.694Z,480.02
2023-01-11T05:22:29.779Z,504.20
2023-01-11T05:25:39.231Z,509.44
2023-01-11T05:28:45.313Z,500.16
2023-01-11T05:31:52.841Z,542.88
2023-01-11T05:34:58.799Z,601.42
2023-01-11T05:38:05.687Z,638.69
2023-01-11T05:41:16.712Z,587.74
2023-01-11T05:44:36.021Z,578.04
2023-01-11T05:47:42.148Z,591.86
2023-01-11T05:50:54.419Z,613.53
2023-01-11T05:54:00.736Z,613.03
2023-01-11T05:57:12.134Z,635.01
2023-01-11T06:00:19.928Z,607.19
2023-01-11T06:03:29.283Z,581.30
2023-01-11T06:06:36.533Z,671.70
2023-01-11T06:09:43.596Z,707.87
2023-01-11T06:13:16.891Z,632.61
2023-01-11T06:16:25.395Z,584.49
2023-01-11T06:19:31.491Z,530.32
2023-01-11T06:22:38.450Z,489.69
2023-01-11T06:25:45.490Z,449.52
2023-01-11T06:28:55.632Z,447.82
2023-01-11T06:32:01.688Z,456.39
2023-01-11T06:35:09.999Z,462.63
2023-01-11T06:38:19.524Z,461.21
2023-01-11T06:41:26.542Z,428.08
2023-01-11T06:44:36.258Z,403.41
2023-01-11T06:47:43.232Z,432.73
2023-01-11T06:50:51.363Z,432.68
2023-01-11T06:53:58.305Z,444.41
2023-01-11T06:57:04.443Z,462.21
2023-01-11T07:00:16.575Z,442.93
2023-01-11T07:03:24.379Z,401.40
2023-01-11T07:06:32.304Z,373.73
2023-01-11T07:09:53.257Z,347.40
2023-01-11T07:13:16.391Z,339.63
2023-01-11T07:16:39.977Z,341.97
2023-01-11T07:20:00.988Z,359.84
2023-01-11T07:23:22.299Z,369.92
2023-01-11T07:26:44.050Z,398.26
2023-01-11T07:29:53.755Z,454.02
2023-01-11T07:33:06.538Z,473.15
2023-01-11T07:36:13.705Z,468.74
2023-01-11T07:39:19.823Z,462.98
2023-01-11T07:42:39.316Z,395.43
2023-01-11T07:45:51.833Z,352.78
2023-01-11T07:49:01.301Z,349.93
2023-01-11T07:52:07.747Z,331.90
2023-01-11T07:55:14.843Z,308.25
2023-01-11T07:58:20.941Z,300.92
2023-01-11T08:01:29.014Z,276.65
2023-01-11T08:04:38.158Z,269.06
2023-01-11T08:07:45.903Z,273.88
2023-01-11T08:11:13.883Z,292.37
2023-01-11T08:14:33.589Z,288.02
2023-01-11T08:17:40.616Z,307.25
2023-01-11T08:20:50.698Z,319.20
2023-01-11T08:23:57.325Z,370.44
2023-01-11T08:27:04.641Z,367.03
2023-01-11T08:30:13.043Z,368.23
2023-01-11T08:33:20.179Z,371.60
2023-01-11T08:36:28.967Z,350.89
2023-01-11T08:39:36.264Z,346.54
2023-01-11T08:42:42.679Z,358.95
2023-01-11T08:45:49.660Z,328.08
2023-01-11T08:48:56.182Z,315.90
2023-01-11T08:52:05.682Z,308.07
2023-01-11T08:55:12.360Z,313.72
2023-01-11T08:58:21.485Z,305.80
2023-01-11T09:01:28.085Z,306.33
2023-01-11T09:04:35.677Z,322.32
2023-01-11T09:07:44.497Z,324.07
2023-01-11T09:10:52.039Z,325.80
2023-01-11T09:13:58.215Z,329.18
2023-01-11T09:17:05.228Z,318.73
2023-01-11T09:20:13.902Z,314.74
2023-01-11T09:23:23.733Z,291.42
2023-01-11T09:26:29.839Z,308.64
2023-01-11T09:29:37.560Z,336.13
2023-01-11T09:32:44.452Z,348.41
2023-01-11T09:35:51.792Z,329.32
2023-01-11T09:39:02.433Z,299.75
2023-01-11T09:42:36.779Z,320.77
2023-01-11T09:45:47.119Z,326.01
2023-01-11T09:49:03.570Z,339.73
2023-01-11T09:52:29.519Z,324.94
2023-01-11T09:55:46.786Z,337.91
2023-01-11T09:59:15.137Z,371.59
2023-01-11T10:02:45.704Z,402.92
2023-01-11T10:06:14.022Z,356.58
2023-01-11T10:18:39.747Z,367.19
2023-01-11T10:20:50.730Z,373.20
2023-01-11T10:24:08.794Z,335.76
2023-01-11T10:27:25.688Z,327.89
2023-01-11T10:30:53.947Z,341.34
2023-01-11T10:34:24.956Z,335.47
2023-01-11T10:37:57.544Z,330.19
2023-01-11T10:41:26.569Z,343.75
2023-01-11T10:44:46.878Z,349.03
2023-01-11T10:48:05.789Z,338.03
2023-01-11T10:51:28.201Z,310.54
2023-01-11T10:54:39.383Z,312.31
2023-01-11T10:58:11.287Z,299.84
2023-01-11T11:01:39.045Z,320.95
2023-01-11T11:05:17.848Z,282.59
2023-01-11T11:08:36.943Z,278.85
2023-01-11T11:11:57.967Z,259.34
2023-01-11T11:15:16.702Z,249.81
2023-01-11T11:18:23.667Z,282.91
2023-01-11T11:21:41.422Z,258.90
2023-01-11T11:24:58.416Z,215.35
2023-01-11T11:28:09.116Z,216.23
2023-01-11T11:31:16.169Z,233.21
2023-01-11T11:34:27.579Z,237.84
2023-01-11T11:37:45.588Z,190.40
2023-01-11T11:41:03.610Z,190.30
2023-01-11T11:44:21.763Z,173.31
2023-01-11T11:47:27.961Z,163.79
2023-01-11T11:50:44.644Z,136.30
2023-01-11T11:53:58.118Z,117.26
2023-01-11T11:57:20.483Z,110.62
2023-01-11T12:00:32.229Z,112.95
2023-01-11T12:03:39.199Z,115.56
2023-01-11T12:06:49.253Z,114.94
2023-01-11T12:10:08.720Z,150.07
2023-01-11T12:13:33.254Z,150.15
2023-01-11T12:16:44.829Z,119.98
2023-01-11T12:19:50.895Z,125.26
2023-01-11T12:23:21.673Z,123.97
2023-01-11T12:26:41.395Z,131.64
2023-01-11T12:30:10.862Z,119.77
2023-01-11T12:33:45.206Z,121.73
2023-01-11T12:37:11.701Z,130.50
2023-01-11T12:40:35.730Z,139.38
2023-01-11T12:44:07.966Z,138.06
2023-01-11T12:47:55.344Z,167.93
2023-01-11T12:51:26.051Z,165.38
2023-01-11T12:54:55.837Z,141.99
2023-01-11T12:58:16.546Z,158.26
2023-01-11T13:01:47.432Z,118.89
2023-01-11T13:05:11.932Z,111.48
2023-01-11T13:08:37.524Z,115.24
2023-01-11T13:12:00.636Z,121.91
2023-01-11T13:15:35.169Z,124.70
2023-01-11T13:19:01.413Z,127.18
2023-01-11T13:22:18.502Z,125.39
2023-01-11T13:25:31.845Z,115.70
2023-01-11T13:28:45.095Z,120.00
2023-01-11T13:31:55.721Z,126.10
2023-01-11T13:35:18.397Z,133.80
2023-01-11T13:38:44.844Z,113.73
2023-01-11T13:41:58.163Z,103.36
2023-01-11T13:45:20.573Z,97.14
2023-01-11T13:48:36.744Z,97.90
2023-01-11T13:51:59.412Z,99.18
2023-01-11T13:55:25.322Z,104.53
2023-01-11T13:58:45.483Z,102.97
2023-01-11T14:02:06.185Z,89.49
2023-01-11T14:05:21.866Z,95.45
2023-01-11T14:09:12.096Z,86.66
2023-01-11T14:12:39.976Z,92.82
2023-01-11T14:16:01.944Z,107.83
2023-01-11T14:19:25.399Z,127.64
2023-01-11T14:22:46.164Z,113.88
2023-01-11T14:26:59.034Z,110.88
2023-01-11T14:30:40.328Z,121.57
2023-01-11T14:34:35.769Z,145.08
2023-01-11T14:38:28.801Z,141.75
2023-01-11T14:42:31.135Z,134.15
2023-01-11T14:46:18.415Z,151.76
2023-01-11T14:50:00.469Z,186.70
2023-01-11T14:53:12.857Z,182.47
2023-01-11T14:56:40.052Z,219.60
2023-01-11T14:59:48.721Z,237.32
2023-01-11T15:03:19.783Z,227.23
2023-01-11T15:06:26.989Z,293.42
2023-01-11T15:09:49.489Z,339.78
2023-01-11T15:13:00.213Z,275.30
2023-01-11T15:16:35.395Z,212.80
2023-01-11T15:19:47.462Z,169.28
2023-01-11T15:23:02.886Z,164.85
2023-01-11T15:26:11.351Z,166.81
2023-01-11T15:29:27.165Z,169.33
2023-01-11T15:32:38.959Z,188.30
2023-01-11T15:36:05.396Z,207.10
2023-01-11T15:39:15.599Z,219.44
2023-01-11T15:43:21.311Z,262.91
2023-01-11T15:47:08.533Z,472.15
2023-01-11T15:50:55.420Z,537.68
2023-01-11T15:54:47.689Z,458.84
2023-01-11T15:58:48.111Z,448.87
2023-01-11T16:02:44.789Z,366.65
2023-01-11T16:06:10.477Z,324.33
2023-01-11T16:09:46.894Z,411.18
2023-01-11T16:13:26.545Z,463.46
2023-01-11T16:16:40.209Z,429.12
2023-01-11T16:19:53.337Z,444.47
2023-01-11T16:23:07.672Z,502.55
2023-01-11T16:26:22.567Z,523.97
2023-01-11T16:29:35.636Z,504.40
2023-01-11T16:32:42.682Z,511.58
2023-01-11T16:35:48.901Z,470.99
2023-01-11T16:39:13.705Z,465.74
2023-01-11T16:42:21.487Z,573.87
2023-01-11T16:45:45.177Z,560.43
2023-01-11T16:48:51.257Z,527.13
2023-01-11T16:52:01.303Z,561.64
2023-01-11T16:55:25.733Z,560.68
2023-01-11T16:58:36.350Z,685.34
2023-01-11T17:01:55.548Z,628.15
2023-01-11T17:05:02.654Z,642.13
2023-01-11T17:08:30.926Z,643.81
2023-01-11T17:11:50.235Z,629.47
2023-01-11T17:15:26.119Z,680.82
2023-01-11T17:18:33.484Z,697.96
2023-01-11T17:21:39.962Z,561.93
2023-01-11T17:24:55.648Z,453.57
2023-01-11T17:28:09.642Z,340.62
2023-01-11T17:31:28.378Z,268.96
2023-01-11T17:34:36.810Z,264.86
2023-01-11T17:37:45.889Z,254.79
2023-01-11T17:40:53.206Z,241.10
2023-01-11T17:44:15.790Z,235.86
2023-01-11T17:47:23.504Z,224.81
2023-01-11T17:50:38.574Z,235.96
2023-01-11T17:53:53.489Z,249.81
2023-01-11T17:57:04.068Z,281.19
2023-01-11T18:00:30.068Z,281.26
2023-01-11T18:03:46.290Z,289.74
2023-01-11T18:06:58.037Z,324.08
2023-01-11T18:10:04.960Z,390.27
2023-01-11T18:13:31.611Z,346.46
2023-01-11T18:17:03.544Z,381.60
2023-01-11T18:20:39.507Z,390.95
2023-01-11T18:23:46.413Z,367.88
2023-01-11T18:27:08.026Z,296.70
2023-01-11T18:30:41.446Z,242.58
2023-01-11T18:33:50.441Z,398.89
2023-01-11T18:37:01.701Z,496.41
2023-01-11T18:40:09.473Z,478.37
2023-01-11T18:43:18.207Z,409.72
2023-01-11T18:46:24.771Z,354.55
2023-01-11T18:49:34.789Z,321.26
2023-01-11T18:52:41.120Z,278.95
2023-01-11T18:55:49.410Z,259.82
2023-01-11T18:58:55.792Z,270.29
2023-01-11T19:05:47.840Z,294.61
2023-01-11T19:08:55.053Z,334.41
2023-01-11T19:12:01.228Z,274.56
2023-01-11T19:15:09.597Z,251.95
2023-01-11T19:18:16.438Z,238.50
2023-01-11T19:21:26.158Z,213.10
2023-01-11T19:24:32.474Z,209.97
2023-01-11T19:27:40.061Z,212.28
2023-01-11T19:30:46.311Z,212.78
2023-01-11T19:33:53.444Z,220.63
2023-01-11T19:37:02.328Z,248.74
2023-01-11T19:40:11.780Z,249.58
2023-01-11T19:43:18.002Z,250.90
2023-01-11T19:46:31.729Z,249.89
2023-01-11T19:49:38.407Z,232.93
2023-01-11T19:52:49.637Z,230.36
2023-01-11T19:55:55.867Z,210.35
2023-01-11T19:59:03.278Z,186.60
2023-01-11T20:02:10.086Z,169.50
2023-01-11T20:05:17.113Z,181.73
2023-01-11T20:08:25.933Z,163.66
2023-01-11T20:11:32.967Z,172.48
2023-01-11T20:14:40.898Z,162.90
2023-01-11T20:17:48.128Z,157.67
2023-01-11T20:20:59.075Z,157.47
2023-01-11T20:24:09.991Z,156.48
2023-01-11T20:27:16.304Z,165.16
2023-01-11T20:30:23.677Z,171.97
2023-01-11T20:33:30.952Z,166.68
2023-01-11T20:36:38.069Z,152.56
2023-01-11T20:39:47.252Z,155.33
2023-01-11T20:42:54.375Z,144.49
2023-01-11T20:46:00.596Z,158.08
2023-01-11T20:49:10.033Z,183.18
2023-01-11T20:52:16.564Z,185.09
2023-01-11T20:55:26.431Z,170.89
2023-01-11T20:58:32.788Z,159.67
2023-01-11T21:01:41.254Z,167.23
2023-01-11T21:04:47.355Z,155.34
2023-01-11T21:07:56.617Z,152.50
2023-01-11T21:11:12.474Z,157.13
2023-01-11T21:14:19.579Z,153.02
2023-01-11T21:17:25.774Z,147.57
2023-01-11T21:20:33.504Z,135.86
2023-01-11T21:23:39.593Z,155.17
2023-01-11T21:26:49.340Z,167.96
2023-01-11T21:29:55.508Z,154.88
2023-01-11T21:33:02.543Z,140.70
2023-01-11T21:36:14.076Z,138.31
2023-01-11T21:39:21.576Z,119.54
2023-01-11T21:42:30.646Z,115.22
2023-01-11T21:45:37.647Z,107.65
2023-01-11T21:48:43.719Z,113.00
2023-01-11T21:51:50.725Z,110.06
2023-01-11T21:54:56.907Z,102.95
2023-01-11T21:58:06.441Z,101.42
2023-01-11T22:01:14.475Z,90.10
2023-01-11T22:04:24.776Z,89.40
2023-01-11T22:07:32.074Z,105.31
2023-01-11T22:10:39.572Z,102.71
2023-01-11T22:13:48.651Z,85.94
2023-01-11T22:16:56.434Z,97.48
2023-01-11T22:20:02.513Z,87.09
2023-01-11T22:23:09.377Z,85.29
2023-01-11T22:26:17.978Z,76.83
2023-01-11T22:29:29.749Z,75.29
2023-01-11T22:32:35.887Z,72.13
2023-01-11T22:35:43.001Z,82.32
2023-01-11T22:38:49.654Z,80.68
2023-01-11T22:41:56.760Z,84.27
2023-01-11T22:45:05.683Z,90.90
2023-01-11T22:48:12.636Z,98.42
2023-01-11T22:51:22.273Z,103.75
2023-01-11T22:54:29.402Z,103.12
2023-01-11T22:57:35.610Z,105.96
2023-01-11T23:00:45.263Z,129.81
2023-01-11T23:03:52.092Z,149.70
2023-01-11T23:06:59.354Z,153.55
2023-01-11T23:10:08.792Z,121.87
2023-01-11T23:13:28.190Z,113.21
2023-01-11T23:16:37.369Z,102.61
2023-01-11T23:19:45.874Z,94.12
2023-01-11T23:22:53.932Z,101.62
2023-01-11T23:26:00.953Z,106.79
2023-01-11T23:29:08.267Z,107.33
2023-01-11T23:32:17.757Z,109.21
2023-01-11T23:35:24.194Z,109.10
2023-01-11T23:38:34.328Z,125.01
2023-01-11T23:41:52.792Z,116.80
2023-01-11T23:45:01.188Z,110.26
2023-01-11T23:48:07.495Z,99.43
2023-01-11T23:51:14.455Z,90.11
2023-01-11T23:54:20.873Z,100.62
2023-01-11T23:57:29.704Z,101.12
